sensor_id;sensor_type;location;lat;lon;timestamp;pressure;altitude;pressure_sealevel;temperature;humidity
27643;BME280;15053;48.618;10.024;2023-09-19T00:00:21;94003.78;;;16.42;91.15
27643;BME280;15053;48.618;10.024;2023-09-19T00:02:58;94002.22;;;16.41;91.54
27643;BME280;15053;48.618;10.024;2023-09-19T00:05:29;94002.75;;;16.34;92.06
27643;BME280;15053;48.618;10.024;2023-09-19T00:07:57;93987.22;;;16.29;92.51
27643;BME280;15053;48.618;10.024;2023-09-19T00:10:28;94010.88;;;16.29;93.04
27643;BME280;15053;48.618;10.024;2023-09-19T00:12:58;94009.22;;;16.25;93.44
27643;BME280;15053;48.618;10.024;2023-09-19T00:15:37;94001.44;;;16.16;93.98
27643;BME280;15053;48.618;10.024;2023-09-19T00:18:04;93999.91;;;16.15;94.58
27643;BME280;15053;48.618;10.024;2023-09-19T00:20:36;93993.78;;;16.11;94.85
27643;BME280;15053;48.618;10.024;2023-09-19T00:23:03;94004.94;;;16.08;95.04
27643;BME280;15053;48.618;10.024;2023-09-19T00:25:31;93996.63;;;16.06;95.11
27643;BME280;15053;48.618;10.024;2023-09-19T00:27:58;93988.28;;;16.04;95.18
27643;BME280;15053;48.618;10.024;2023-09-19T00:30:26;93989.41;;;16.03;95.21
27643;BME280;15053;48.618;10.024;2023-09-19T00:32:53;93998.38;;;16.02;95.05
27643;BME280;15053;48.618;10.024;2023-09-19T00:35:21;94001.97;;;15.98;94.97
27643;BME280;15053;48.618;10.024;2023-09-19T00:37:51;93987.22;;;15.93;95.04
27643;BME280;15053;48.618;10.024;2023-09-19T00:40:18;93970.97;;;15.91;95.25
27643;BME280;15053;48.618;10.024;2023-09-19T00:42:46;93975.03;;;15.88;95.18
27643;BME280;15053;48.618;10.024;2023-09-19T00:45:14;93985.31;;;15.93;95.34
27643;BME280;15053;48.618;10.024;2023-09-19T00:47:47;93983.34;;;15.90;95.32
27643;BME280;15053;48.618;10.024;2023-09-19T00:50:18;93988.50;;;15.87;95.58
27643;BME280;15053;48.618;10.024;2023-09-19T00:52:50;93996.25;;;15.83;95.53
27643;BME280;15053;48.618;10.024;2023-09-19T00:55:19;94001.38;;;15.80;95.65
27643;BME280;15053;48.618;10.024;2023-09-19T00:57:47;94004.47;;;15.82;95.89
27643;BME280;15053;48.618;10.024;2023-09-19T01:00:16;94012.34;;;15.82;95.80
27643;BME280;15053;48.618;10.024;2023-09-19T01:02:47;94012.66;;;15.80;95.52
27643;BME280;15053;48.618;10.024;2023-09-19T01:05:15;94003.38;;;15.83;95.77
27643;BME280;15053;48.618;10.024;2023-09-19T01:07:42;93999.66;;;15.84;95.81
27643;BME280;15053;48.618;10.024;2023-09-19T01:10:11;94005.69;;;15.84;95.77
27643;BME280;15053;48.618;10.024;2023-09-19T01:18:39;94012.56;;;15.89;95.52
27643;BME280;15053;48.618;10.024;2023-09-19T01:24:34;94018.59;;;15.89;95.55
27643;BME280;15053;48.618;10.024;2023-09-19T01:29:48;94027.00;;;15.83;95.47
27643;BME280;15053;48.618;10.024;2023-09-19T01:32:18;94036.41;;;15.84;95.48
27643;BME280;15053;48.618;10.024;2023-09-19T01:34:54;94041.25;;;15.82;95.47
27643;BME280;15053;48.618;10.024;2023-09-19T01:37:24;94033.66;;;15.80;95.43
27643;BME280;15053;48.618;10.024;2023-09-19T01:45:16;94038.78;;;15.77;95.10
27643;BME280;15053;48.618;10.024;2023-09-19T01:47:51;94046.50;;;15.82;95.15
27643;BME280;15053;48.618;10.024;2023-09-19T01:50:39;94044.59;;;15.82;95.00
27643;BME280;15053;48.618;10.024;2023-09-19T01:53:30;94046.50;;;15.82;95.06
27643;BME280;15053;48.618;10.024;2023-09-19T01:55:59;94046.81;;;15.80;94.87
27643;BME280;15053;48.618;10.024;2023-09-19T01:58:37;94049.00;;;15.78;95.22
27643;BME280;15053;48.618;10.024;2023-09-19T02:01:08;94049.00;;;15.78;95.00
27643;BME280;15053;48.618;10.024;2023-09-19T02:03:38;94046.03;;;15.80;95.05
27643;BME280;15053;48.618;10.024;2023-09-19T02:06:06;94048.66;;;15.80;95.33
27643;BME280;15053;48.618;10.024;2023-09-19T02:08:37;94050.19;;;15.81;95.27
27643;BME280;15053;48.618;10.024;2023-09-19T02:11:04;94046.03;;;15.80;95.10
27643;BME280;15053;48.618;10.024;2023-09-19T02:13:32;94052.50;;;15.82;95.15
27643;BME280;15053;48.618;10.024;2023-09-19T02:15:59;94055.44;;;15.81;95.21
27643;BME280;15053;48.618;10.024;2023-09-19T02:18:26;94050.19;;;15.81;95.13
27643;BME280;15053;48.618;10.024;2023-09-19T02:20:54;94053.91;;;15.80;95.03
27643;BME280;15053;48.618;10.024;2023-09-19T02:23:22;94045.94;;;15.76;95.35
27643;BME280;15053;48.618;10.024;2023-09-19T02:25:53;94051.91;;;15.77;95.71
27643;BME280;15053;48.618;10.024;2023-09-19T02:28:20;94043.59;;;15.75;95.87
27643;BME280;15053;48.618;10.024;2023-09-19T02:30:50;94055.00;;;15.79;95.71
27643;BME280;15053;48.618;10.024;2023-09-19T02:33:16;94048.22;;;15.78;95.81
27643;BME280;15053;48.618;10.024;2023-09-19T02:35:46;94058.28;;;15.76;95.72
27643;BME280;15053;48.618;10.024;2023-09-19T02:38:13;94065.25;;;15.72;95.85
27643;BME280;15053;48.618;10.024;2023-09-19T02:40:41;94062.53;;;15.68;96.02
27643;BME280;15053;48.618;10.024;2023-09-19T02:43:09;94061.28;;;15.66;96.24
27643;BME280;15053;48.618;10.024;2023-09-19T02:45:36;94055.16;;;15.62;96.45
27643;BME280;15053;48.618;10.024;2023-09-19T02:48:03;94062.59;;;15.60;96.65
27643;BME280;15053;48.618;10.024;2023-09-19T02:50:31;94058.88;;;15.61;96.71
27643;BME280;15053;48.618;10.024;2023-09-19T02:52:57;94065.97;;;15.60;96.75
27643;BME280;15053;48.618;10.024;2023-09-19T02:55:24;94064.91;;;15.61;96.85
27643;BME280;15053;48.618;10.024;2023-09-19T02:57:53;94065.66;;;15.62;96.94
27643;BME280;15053;48.618;10.024;2023-09-19T03:00:24;94067.84;;;15.60;96.96
27643;BME280;15053;48.618;10.024;2023-09-19T03:02:53;94064.59;;;15.63;96.81
27643;BME280;15053;48.618;10.024;2023-09-19T03:05:21;94067.22;;;15.63;96.84
27643;BME280;15053;48.618;10.024;2023-09-19T03:07:49;94064.91;;;15.61;97.01
27643;BME280;15053;48.618;10.024;2023-09-19T03:10:18;94073.97;;;15.64;96.89
27643;BME280;15053;48.618;10.024;2023-09-19T03:12:49;94080.00;;;15.64;97.01
27643;BME280;15053;48.618;10.024;2023-09-19T03:15:17;94081.56;;;15.65;96.87
27643;BME280;15053;48.618;10.024;2023-09-19T03:17:46;94086.03;;;15.65;97.11
27643;BME280;15053;48.618;10.024;2023-09-19T03:20:17;94098.94;;;15.70;96.99
27643;BME280;15053;48.618;10.024;2023-09-19T03:22:46;94085.50;;;15.71;96.88
27643;BME280;15053;48.618;10.024;2023-09-19T03:25:15;94081.78;;;15.72;96.75
27643;BME280;15053;48.618;10.024;2023-09-19T03:27:47;94090.09;;;15.74;96.87
27643;BME280;15053;48.618;10.024;2023-09-19T03:30:14;94092.41;;;15.76;96.78
27643;BME280;15053;48.618;10.024;2023-09-19T03:32:48;94087.69;;;15.69;96.82
27643;BME280;15053;48.618;10.024;2023-09-19T03:35:17;94088.59;;;15.73;96.59
27643;BME280;15053;48.618;10.024;2023-09-19T03:37:45;94086.25;;;15.72;96.60
27643;BME280;15053;48.618;10.024;2023-09-19T03:40:13;94088.13;;;15.71;96.52
27643;BME280;15053;48.618;10.024;2023-09-19T03:42:41;94086.72;;;15.74;96.20
27643;BME280;15053;48.618;10.024;2023-09-19T03:45:12;94089.34;;;15.74;96.13
27643;BME280;15053;48.618;10.024;2023-09-19T03:47:44;94094.13;;;15.72;96.38
27643;BME280;15053;48.618;10.024;2023-09-19T03:50:15;94079.66;;;15.66;96.08
27643;BME280;15053;48.618;10.024;2023-09-19T03:52:44;94077.81;;;15.66;96.10
27643;BME280;15053;48.618;10.024;2023-09-19T03:55:11;94080.78;;;15.65;96.11
27643;BME280;15053;48.618;10.024;2023-09-19T03:57:38;94084.69;;;15.59;96.33
27643;BME280;15053;48.618;10.024;2023-09-19T04:00:05;94083.47;;;15.56;96.53
27643;BME280;15053;48.618;10.024;2023-09-19T04:02:41;94087.81;;;15.52;96.67
27643;BME280;15053;48.618;10.024;2023-09-19T04:05:08;94087.38;;;15.50;96.97
27643;BME280;15053;48.618;10.024;2023-09-19T04:07:35;94091.84;;;15.50;97.08
27643;BME280;15053;48.618;10.024;2023-09-19T04:10:02;94086.16;;;15.48;97.01
27643;BME280;15053;48.618;10.024;2023-09-19T04:12:29;94090.34;;;15.49;97.46
27643;BME280;15053;48.618;10.024;2023-09-19T04:14:56;94090.34;;;15.49;97.63
27643;BME280;15053;48.618;10.024;2023-09-19T04:17:22;94091.41;;;15.48;97.91
27643;BME280;15053;48.618;10.024;2023-09-19T04:19:50;94092.97;;;15.49;97.90
27643;BME280;15053;48.618;10.024;2023-09-19T04:22:17;94082.47;;;15.49;98.21
27643;BME280;15053;48.618;10.024;2023-09-19T04:24:43;94093.19;;;15.56;98.12
27643;BME280;15053;48.618;10.024;2023-09-19T04:27:10;94098.59;;;15.59;97.84
27643;BME280;15053;48.618;10.024;2023-09-19T04:29:38;94109.84;;;15.60;97.61
27643;BME280;15053;48.618;10.024;2023-09-19T04:32:05;94106.91;;;15.61;97.72
27643;BME280;15053;48.618;10.024;2023-09-19T04:34:32;94105.03;;;15.62;97.57
27643;BME280;15053;48.618;10.024;2023-09-19T04:37:01;94109.66;;;15.65;97.70
27643;BME280;15053;48.618;10.024;2023-09-19T04:39:28;94110.88;;;15.67;97.72
27643;BME280;15053;48.618;10.024;2023-09-19T04:41:55;94103.13;;;15.71;97.82
27643;BME280;15053;48.618;10.024;2023-09-19T04:44:21;94104.66;;;15.72;97.53
27643;BME280;15053;48.618;10.024;2023-09-19T04:46:48;94100.59;;;15.74;97.48
27643;BME280;15053;48.618;10.024;2023-09-19T04:49:15;94100.31;;;15.76;97.30
27643;BME280;15053;48.618;10.024;2023-09-19T04:51:41;94099.53;;;15.75;97.44
27643;BME280;15053;48.618;10.024;2023-09-19T04:54:08;94106.63;;;15.75;97.28
27643;BME280;15053;48.618;10.024;2023-09-19T04:56:35;94108.38;;;15.71;97.14
27643;BME280;15053;48.618;10.024;2023-09-19T04:59:02;94111.09;;;15.74;97.29
27643;BME280;15053;48.618;10.024;2023-09-19T05:01:29;94124.56;;;15.73;97.30
27643;BME280;15053;48.618;10.024;2023-09-19T05:03:56;94122.25;;;15.71;97.38
27643;BME280;15053;48.618;10.024;2023-09-19T05:06:22;94112.41;;;15.68;97.57
27643;BME280;15053;48.618;10.024;2023-09-19T05:08:50;94112.72;;;15.67;97.68
27643;BME280;15053;48.618;10.024;2023-09-19T05:11:19;94110.88;;;15.67;97.77
27643;BME280;15053;48.618;10.024;2023-09-19T05:13:47;94110.88;;;15.67;97.93
27643;BME280;15053;48.618;10.024;2023-09-19T05:16:14;94126.28;;;15.69;98.08
27643;BME280;15053;48.618;10.024;2023-09-19T05:18:40;94128.16;;;15.68;97.81
27643;BME280;15053;48.618;10.024;2023-09-19T05:21:07;94124.78;;;15.68;97.94
27643;BME280;15053;48.618;10.024;2023-09-19T05:23:34;94132.66;;;15.68;98.09
27643;BME280;15053;48.618;10.024;2023-09-19T05:26:01;94130.31;;;15.66;97.85
27643;BME280;15053;48.618;10.024;2023-09-19T05:28:28;94140.72;;;15.63;97.86
27643;BME280;15053;48.618;10.024;2023-09-19T05:30:55;94144.00;;;15.60;98.05
27643;BME280;15053;48.618;10.024;2023-09-19T05:33:22;94145.06;;;15.59;98.15
27643;BME280;15053;48.618;10.024;2023-09-19T05:35:49;94154.03;;;15.58;98.06
27643;BME280;15053;48.618;10.024;2023-09-19T05:38:16;94145.69;;;15.56;98.07
27643;BME280;15053;48.618;10.024;2023-09-19T05:40:45;94145.69;;;15.56;98.33
27643;BME280;15053;48.618;10.024;2023-09-19T05:43:13;94144.63;;;15.57;98.36
27643;BME280;15053;48.618;10.024;2023-09-19T05:45:41;94151.72;;;15.56;98.43
27643;BME280;15053;48.618;10.024;2023-09-19T05:48:12;94154.03;;;15.58;98.27
27643;BME280;15053;48.618;10.024;2023-09-19T05:50:40;94156.34;;;15.59;98.43
27643;BME280;15053;48.618;10.024;2023-09-19T05:53:06;94156.47;;;15.63;98.40
27643;BME280;15053;48.618;10.024;2023-09-19T05:55:33;94154.72;;;15.67;98.54
27643;BME280;15053;48.618;10.024;2023-09-19T05:58:00;94159.94;;;15.75;98.12
27643;BME280;15053;48.618;10.024;2023-09-19T06:00:26;94164.69;;;15.82;98.05
27643;BME280;15053;48.618;10.024;2023-09-19T06:02:59;94170.16;;;15.89;98.05
27643;BME280;15053;48.618;10.024;2023-09-19T06:05:26;94170.88;;;15.98;97.67
27643;BME280;15053;48.618;10.024;2023-09-19T06:07:53;94169.91;;;16.03;97.26
27643;BME280;15053;48.618;10.024;2023-09-19T06:10:20;94177.06;;;16.14;96.93
27643;BME280;15053;48.618;10.024;2023-09-19T06:12:47;94170.53;;;16.20;96.80
27643;BME280;15053;48.618;10.024;2023-09-19T06:15:15;94175.25;;;16.27;96.27
27643;BME280;15053;48.618;10.024;2023-09-19T06:17:49;94177.22;;;16.30;95.90
27643;BME280;15053;48.618;10.024;2023-09-19T06:20:16;94179.97;;;16.33;96.09
27643;BME280;15053;48.618;10.024;2023-09-19T06:22:44;94182.41;;;16.38;95.78
27643;BME280;15053;48.618;10.024;2023-09-19T06:25:13;94182.19;;;16.43;95.65
27643;BME280;15053;48.618;10.024;2023-09-19T06:27:50;94190.53;;;16.45;95.68
27643;BME280;15053;48.618;10.024;2023-09-19T06:30:24;94185.25;;;16.45;95.53
27643;BME280;15053;48.618;10.024;2023-09-19T06:32:56;94188.66;;;16.46;95.47
27643;BME280;15053;48.618;10.024;2023-09-19T06:35:23;94194.25;;;16.44;95.58
27643;BME280;15053;48.618;10.024;2023-09-19T06:37:50;94199.38;;;16.41;95.56
27643;BME280;15053;48.618;10.024;2023-09-19T06:40:18;94194.47;;;16.39;95.81
27643;BME280;15053;48.618;10.024;2023-09-19T06:42:47;94198.38;;;16.33;95.78
27643;BME280;15053;48.618;10.024;2023-09-19T06:45:16;94204.59;;;16.29;96.37
27643;BME280;15053;48.618;10.024;2023-09-19T06:47:47;94208.47;;;16.31;96.71
27643;BME280;15053;48.618;10.024;2023-09-19T06:50:17;94210.31;;;16.31;96.86
27643;BME280;15053;48.618;10.024;2023-09-19T06:52:46;94210.31;;;16.31;97.10
27643;BME280;15053;48.618;10.024;2023-09-19T06:55:16;94205.84;;;16.31;97.09
27643;BME280;15053;48.618;10.024;2023-09-19T06:57:43;94211.19;;;16.35;97.38
27643;BME280;15053;48.618;10.024;2023-09-19T07:00:11;94227.28;;;16.33;97.46
27643;BME280;15053;48.618;10.024;2023-09-19T07:03:04;94223.75;;;16.29;97.49
27643;BME280;15053;48.618;10.024;2023-09-19T07:05:35;94227.69;;;16.23;97.97
27643;BME280;15053;48.618;10.024;2023-09-19T07:08:07;94214.09;;;16.21;98.23
27643;BME280;15053;48.618;10.024;2023-09-19T07:10:34;94230.78;;;16.25;98.59
27643;BME280;15053;48.618;10.024;2023-09-19T07:13:03;94232.63;;;16.25;98.90
27643;BME280;15053;48.618;10.024;2023-09-19T07:15:32;94227.03;;;16.26;99.11
27643;BME280;15053;48.618;10.024;2023-09-19T07:18:06;94229.22;;;16.24;98.99
27643;BME280;15053;48.618;10.024;2023-09-19T07:20:33;94240.38;;;16.21;99.50
27643;BME280;15053;48.618;10.024;2023-09-19T07:23:01;94251.53;;;16.18;99.73
27643;BME280;15053;48.618;10.024;2023-09-19T07:25:28;94246.03;;;16.11;100.00
27643;BME280;15053;48.618;10.024;2023-09-19T07:27:56;94233.88;;;16.07;100.00
27643;BME280;15053;48.618;10.024;2023-09-19T07:30:23;94245.44;;;16.06;100.00
27643;BME280;15053;48.618;10.024;2023-09-19T07:32:50;94249.50;;;16.03;100.00
27643;BME280;15053;48.618;10.024;2023-09-19T07:35:16;94266.03;;;16.04;100.00
27643;BME280;15053;48.618;10.024;2023-09-19T07:37:43;94266.22;;;15.99;100.00
27643;BME280;15053;48.618;10.024;2023-09-19T07:40:10;94275.47;;;15.96;100.00
27643;BME280;15053;48.618;10.024;2023-09-19T07:42:37;94278.78;;;15.93;100.00
27643;BME280;15053;48.618;10.024;2023-09-19T07:45:08;94271.97;;;15.92;100.00
27643;BME280;15053;48.618;10.024;2023-09-19T07:47:34;94267.16;;;15.94;100.00
27643;BME280;15053;48.618;10.024;2023-09-19T07:50:03;94273.38;;;15.89;100.00
27643;BME280;15053;48.618;10.024;2023-09-19T07:52:30;94282.97;;;15.85;100.00
27643;BME280;15053;48.618;10.024;2023-09-19T07:54:56;94279.66;;;15.76;100.00
27643;BME280;15053;48.618;10.024;2023-09-19T07:57:24;94276.25;;;15.76;100.00
27643;BME280;15053;48.618;10.024;2023-09-19T07:59:51;94284.75;;;15.73;100.00
27643;BME280;15053;48.618;10.024;2023-09-19T08:02:17;94279.50;;;15.73;100.00
27643;BME280;15053;48.618;10.024;2023-09-19T08:04:45;94286.75;;;15.76;100.00
27643;BME280;15053;48.618;10.024;2023-09-19T08:07:13;94287.78;;;15.83;100.00
27643;BME280;15053;48.618;10.024;2023-09-19T08:09:40;94277.66;;;15.94;100.00
27643;BME280;15053;48.618;10.024;2023-09-19T08:12:07;94288.47;;;16.01;99.96
27643;BME280;15053;48.618;10.024;2023-09-19T08:14:36;94290.13;;;16.06;99.70
27643;BME280;15053;48.618;10.024;2023-09-19T08:17:04;94292.75;;;16.06;99.37
27643;BME280;15053;48.618;10.024;2023-09-19T08:19:32;94294.59;;;16.05;99.31
27643;BME280;15053;48.618;10.024;2023-09-19T08:21:59;94278.84;;;16.05;99.06
27643;BME280;15053;48.618;10.024;2023-09-19T08:24:26;94275.56;;;16.08;99.19
27643;BME280;15053;48.618;10.024;2023-09-19T08:26:55;94286.16;;;16.20;99.18
27643;BME280;15053;48.618;10.024;2023-09-19T08:29:23;94282.69;;;16.28;99.14
27643;BME280;15053;48.618;10.024;2023-09-19T08:31:55;94298.06;;;16.38;99.00
27643;BME280;15053;48.618;10.024;2023-09-19T08:34:23;94299.41;;;16.44;99.32
27643;BME280;15053;48.618;10.024;2023-09-19T08:36:51;94306.03;;;16.50;99.35
27643;BME280;15053;48.618;10.024;2023-09-19T08:39:19;94303.22;;;16.56;99.52
27643;BME280;15053;48.618;10.024;2023-09-19T08:41:45;94299.63;;;16.60;99.35
27643;BME280;15053;48.618;10.024;2023-09-19T08:44:12;94298.84;;;16.60;98.72
27643;BME280;15053;48.618;10.024;2023-09-19T08:46:41;94306.78;;;16.72;98.20
27643;BME280;15053;48.618;10.024;2023-09-19T08:49:17;94302.34;;;16.84;98.00
27643;BME280;15053;48.618;10.024;2023-09-19T08:51:54;94307.31;;;16.98;97.00
27643;BME280;15053;48.618;10.024;2023-09-19T08:54:25;94311.72;;;17.06;96.42
27643;BME280;15053;48.618;10.024;2023-09-19T08:56:55;94314.91;;;17.11;96.20
27643;BME280;15053;48.618;10.024;2023-09-19T08:59:26;94315.28;;;17.22;95.97
27643;BME280;15053;48.618;10.024;2023-09-19T09:01:53;94311.78;;;17.30;95.15
27643;BME280;15053;48.618;10.024;2023-09-19T09:04:21;94316.75;;;17.44;94.58
27643;BME280;15053;48.618;10.024;2023-09-19T09:06:49;94325.59;;;17.39;92.29
27643;BME280;15053;48.618;10.024;2023-09-19T09:09:20;94313.22;;;17.40;91.56
27643;BME280;15053;48.618;10.024;2023-09-19T09:11:48;94308.28;;;17.50;90.44
27643;BME280;15053;48.618;10.024;2023-09-19T09:14:18;94305.03;;;17.65;89.27
27643;BME280;15053;48.618;10.024;2023-09-19T09:16:46;94315.34;;;17.71;89.99
27643;BME280;15053;48.618;10.024;2023-09-19T09:19:14;94322.69;;;17.89;90.40
27643;BME280;15053;48.618;10.024;2023-09-19T09:21:43;94308.63;;;18.09;88.37
27643;BME280;15053;48.618;10.024;2023-09-19T09:24:29;94322.56;;;18.22;87.39
27643;BME280;15053;48.618;10.024;2023-09-19T09:26:58;94313.56;;;18.23;86.10
27643;BME280;15053;48.618;10.024;2023-09-19T09:29:41;94333.00;;;18.18;86.60
27643;BME280;15053;48.618;10.024;2023-09-19T09:32:24;94330.81;;;18.08;85.84
27643;BME280;15053;48.618;10.024;2023-09-19T09:34:55;94320.72;;;17.98;85.25
27643;BME280;15053;48.618;10.024;2023-09-19T09:37:26;94324.78;;;17.96;84.62
27643;BME280;15053;48.618;10.024;2023-09-19T09:39:57;94323.69;;;17.97;83.11
27643;BME280;15053;48.618;10.024;2023-09-19T09:42:35;94323.47;;;17.90;81.95
27643;BME280;15053;48.618;10.024;2023-09-19T09:45:18;94337.41;;;18.02;81.54
27643;BME280;15053;48.618;10.024;2023-09-19T09:48:01;94338.72;;;18.20;81.94
27643;BME280;15053;48.618;10.024;2023-09-19T09:50:47;94336.69;;;18.42;80.91
27643;BME280;15053;48.618;10.024;2023-09-19T09:53:21;94341.88;;;18.50;80.59
27643;BME280;15053;48.618;10.024;2023-09-19T09:55:59;94332.94;;;18.55;80.91
27643;BME280;15053;48.618;10.024;2023-09-19T09:58:37;94334.50;;;18.56;78.39
27643;BME280;15053;48.618;10.024;2023-09-19T10:01:04;94335.28;;;18.56;79.14
27643;BME280;15053;48.618;10.024;2023-09-19T10:03:42;94357.69;;;18.50;78.74
27643;BME280;15053;48.618;10.024;2023-09-19T10:06:16;94345.59;;;18.49;78.69
27643;BME280;15053;48.618;10.024;2023-09-19T10:11:48;94341.81;;;18.62;79.45
27643;BME280;15053;48.618;10.024;2023-09-19T10:14:26;94338.47;;;18.90;77.74
27643;BME280;15053;48.618;10.024;2023-09-19T10:16:59;94353.91;;;19.03;76.38
27643;BME280;15053;48.618;10.024;2023-09-19T10:19:36;94348.53;;;19.00;73.81
27643;BME280;15053;48.618;10.024;2023-09-19T10:22:04;94344.03;;;19.00;74.45
27643;BME280;15053;48.618;10.024;2023-09-19T10:24:34;94336.63;;;19.06;73.95
27643;BME280;15053;48.618;10.024;2023-09-19T10:27:14;94338.34;;;19.14;73.91
27643;BME280;15053;48.618;10.024;2023-09-19T10:29:44;94333.91;;;19.18;73.75
27643;BME280;15053;48.618;10.024;2023-09-19T10:32:14;94339.91;;;19.30;72.52
27643;BME280;15053;48.618;10.024;2023-09-19T10:34:46;94346.63;;;19.28;72.17
27643;BME280;15053;48.618;10.024;2023-09-19T10:37:16;94337.59;;;19.29;70.40
27643;BME280;15053;48.618;10.024;2023-09-19T10:39:46;94346.47;;;19.36;69.72
27643;BME280;15053;48.618;10.024;2023-09-19T10:42:18;94326.59;;;19.27;68.76
27643;BME280;15053;48.618;10.024;2023-09-19T10:44:51;94345.06;;;19.39;68.64
27643;BME280;15053;48.618;10.024;2023-09-19T10:47:20;94337.72;;;19.48;67.86
27643;BME280;15053;48.618;10.024;2023-09-19T10:49:50;94331.94;;;19.74;67.26
27643;BME280;15053;48.618;10.024;2023-09-19T10:52:22;94334.91;;;20.03;66.30
27643;BME280;15053;48.618;10.024;2023-09-19T10:54:52;94350.50;;;20.09;63.89
27643;BME280;15053;48.618;10.024;2023-09-19T10:57:23;94342.75;;;20.16;63.55
27643;BME280;15053;48.618;10.024;2023-09-19T11:00:06;94330.25;;;20.32;64.09
27643;BME280;15053;48.618;10.024;2023-09-19T11:08:56;94341.53;;;20.29;61.67
27643;BME280;15053;48.618;10.024;2023-09-19T11:11:51;94338.69;;;20.37;61.61
27643;BME280;15053;48.618;10.024;2023-09-19T11:30:49;94306.56;;;20.93;61.11
27643;BME280;15053;48.618;10.024;2023-09-19T11:33:20;94323.28;;;21.39;60.60
27643;BME280;15053;48.618;10.024;2023-09-19T11:36:12;94309.69;;;21.63;58.42
27643;BME280;15053;48.618;10.024;2023-09-19T11:46:31;94322.53;;;21.61;57.92
27643;BME280;15053;48.618;10.024;2023-09-19T11:49:06;94308.28;;;21.69;56.14
27643;BME280;15053;48.618;10.024;2023-09-19T11:51:41;94316.19;;;21.88;55.99
27643;BME280;15053;48.618;10.024;2023-09-19T11:54:16;94304.75;;;22.10;56.08
27643;BME280;15053;48.618;10.024;2023-09-19T11:56:45;94287.88;;;21.73;55.09
27643;BME280;15053;48.618;10.024;2023-09-19T11:59:23;94306.16;;;21.78;56.18
27643;BME280;15053;48.618;10.024;2023-09-19T12:01:52;94303.78;;;21.73;54.62
27643;BME280;15053;48.618;10.024;2023-09-19T12:04:39;94324.13;;;21.88;53.10
27643;BME280;15053;48.618;10.024;2023-09-19T12:07:09;94310.88;;;21.88;51.45
27643;BME280;15053;48.618;10.024;2023-09-19T12:09:45;94302.56;;;21.67;50.71
27643;BME280;15053;48.618;10.024;2023-09-19T12:12:23;94294.56;;;21.41;51.98
27643;BME280;15053;48.618;10.024;2023-09-19T12:14:50;94294.72;;;21.51;53.68
27643;BME280;15053;48.618;10.024;2023-09-19T12:17:17;94287.88;;;21.73;53.83
27643;BME280;15053;48.618;10.024;2023-09-19T12:19:56;94287.56;;;22.01;51.26
27643;BME280;15053;48.618;10.024;2023-09-19T12:22:22;94292.28;;;22.14;51.20
27643;BME280;15053;48.618;10.024;2023-09-19T12:24:49;94285.75;;;22.34;50.43
27643;BME280;15053;48.618;10.024;2023-09-19T12:27:17;94293.78;;;22.68;50.05
27643;BME280;15053;48.618;10.024;2023-09-19T12:29:47;94288.00;;;22.92;49.84
27643;BME280;15053;48.618;10.024;2023-09-19T12:32:36;94277.50;;;23.06;49.27
27643;BME280;15053;48.618;10.024;2023-09-19T12:35:07;94273.84;;;23.21;47.21
27643;BME280;15053;48.618;10.024;2023-09-19T12:37:43;94280.06;;;23.36;46.00
27643;BME280;15053;48.618;10.024;2023-09-19T12:40:12;94261.53;;;23.39;46.15
27643;BME280;15053;48.618;10.024;2023-09-19T12:42:49;94259.00;;;23.54;46.20
27643;BME280;15053;48.618;10.024;2023-09-19T12:45:16;94263.75;;;23.81;46.50
27643;BME280;15053;48.618;10.024;2023-09-19T12:48:22;94263.00;;;23.84;46.08
27643;BME280;15053;48.618;10.024;2023-09-19T12:53:39;94262.22;;;24.38;46.83
27643;BME280;15053;48.618;10.024;2023-09-19T12:56:12;94269.06;;;24.36;45.99
27643;BME280;15053;48.618;10.024;2023-09-19T12:58:57;94252.22;;;24.18;45.27
27643;BME280;15053;48.618;10.024;2023-09-19T13:01:29;94276.09;;;24.07;44.53
27643;BME280;15053;48.618;10.024;2023-09-19T13:04:20;94269.00;;;23.74;44.80
27643;BME280;15053;48.618;10.024;2023-09-19T13:06:55;94267.47;;;23.70;46.22
27643;BME280;15053;48.618;10.024;2023-09-19T13:09:27;94255.47;;;23.93;46.17
27643;BME280;15053;48.618;10.024;2023-09-19T13:12:32;94260.94;;;24.11;44.89
27643;BME280;15053;48.618;10.024;2023-09-19T13:15:11;94259.47;;;24.17;45.03
27643;BME280;15053;48.618;10.024;2023-09-19T13:17:47;94259.34;;;24.03;44.95
27643;BME280;15053;48.618;10.024;2023-09-19T13:20:24;94253.66;;;24.08;44.34
27643;BME280;15053;48.618;10.024;2023-09-19T13:22:54;94257.13;;;24.12;44.29
27643;BME280;15053;48.618;10.024;2023-09-19T13:25:25;94253.03;;;23.71;45.30
27643;BME280;15053;48.618;10.024;2023-09-19T13:27:56;94258.47;;;23.37;45.13
27643;BME280;15053;48.618;10.024;2023-09-19T13:30:24;94257.78;;;23.07;46.65
27643;BME280;15053;48.618;10.024;2023-09-19T13:32:52;94266.56;;;22.78;46.75
27643;BME280;15053;48.618;10.024;2023-09-19T13:35:20;94255.19;;;22.44;47.48
27643;BME280;15053;48.618;10.024;2023-09-19T13:37:47;94253.47;;;22.62;47.71
27643;BME280;15053;48.618;10.024;2023-09-19T13:40:15;94246.94;;;22.86;47.64
27643;BME280;15053;48.618;10.024;2023-09-19T13:42:42;94240.06;;;23.18;47.67
27643;BME280;15053;48.618;10.024;2023-09-19T13:45:09;94235.91;;;23.65;46.31
27643;BME280;15053;48.618;10.024;2023-09-19T13:47:39;94226.97;;;23.94;45.87
27643;BME280;15053;48.618;10.024;2023-09-19T13:50:06;94243.88;;;24.19;45.02
27643;BME280;15053;48.618;10.024;2023-09-19T13:52:34;94220.69;;;24.27;45.08
27643;BME280;15053;48.618;10.024;2023-09-19T13:55:00;94224.91;;;24.35;44.60
27643;BME280;15053;48.618;10.024;2023-09-19T13:57:27;94223.03;;;24.35;44.47
27643;BME280;15053;48.618;10.024;2023-09-19T13:59:54;94214.31;;;24.42;44.50